Time;durP1;ratioP1;P1;durP2;ratioP2;P2;SDS_P1;SDS_P2;PMS_P1;PMS_P2;Temp;Humidity;BMP_temperature;BMP_pressure;BME280_temperature;BME280_humidity;BME280_pressure;Samples;Min_cycle;Max_cycle;Signal;HPM_P1;HPM_P2
2021/10/04 00:02:18;;;;;;;2.30;1.08;;;12.60;97.70;;;;;;5073566;28;20306;-71
2021/10/04 00:04:44;;;;;;;1.83;0.90;;;12.50;97.70;;;;;;5076023;28;20029;-71
2021/10/04 00:07:09;;;;;;;6.38;0.90;;;12.50;97.50;;;;;;5060249;28;20040;-71
2021/10/04 00:09:35;;;;;;;3.45;1.08;;;12.40;98.00;;;;;;5065149;28;20459;-71
2021/10/04 00:12:01;;;;;;;1.90;0.77;;;12.40;98.00;;;;;;5069311;28;20126;-71
2021/10/04 00:14:28;;;;;;;5.75;0.90;;;12.30;98.00;;;;;;5065263;28;20032;-71
2021/10/04 00:16:55;;;;;;;1.90;0.90;;;12.30;98.00;;;;;;5071296;28;20417;-71
2021/10/04 00:19:21;;;;;;;2.58;0.80;;;12.30;98.00;;;;;;5063402;28;20057;-71
2021/10/04 00:21:47;;;;;;;1.83;0.80;;;12.20;98.00;;;;;;5057623;28;20043;-71
2021/10/04 00:24:13;;;;;;;1.90;0.90;;;12.20;98.00;;;;;;5059615;28;20032;-71
2021/10/04 00:26:38;;;;;;;2.83;0.90;;;12.30;98.00;;;;;;5063053;28;20417;-71
2021/10/04 00:29:04;;;;;;;1.55;0.80;;;12.30;98.00;;;;;;5072797;28;20029;-71
2021/10/04 00:31:30;;;;;;;4.28;1.00;;;12.20;98.00;;;;;;5061014;28;20337;-71
2021/10/04 00:33:56;;;;;;;2.88;0.80;;;12.20;98.00;;;;;;5073741;28;20032;-71
2021/10/04 00:36:21;;;;;;;1.15;0.70;;;12.10;98.00;;;;;;5070648;28;20031;-71
2021/10/04 00:38:47;;;;;;;1.98;0.90;;;12.10;98.00;;;;;;5072303;28;20028;-71
2021/10/04 00:41:13;;;;;;;2.78;0.90;;;12.10;98.00;;;;;;5070254;28;20440;-71
2021/10/04 00:43:38;;;;;;;2.15;1.00;;;12.00;98.00;;;;;;5074494;28;20082;-71
2021/10/04 00:46:04;;;;;;;2.05;0.95;;;12.10;98.00;;;;;;5072576;28;20028;-71
2021/10/04 00:48:30;;;;;;;1.27;0.80;;;12.10;98.00;;;;;;5073183;28;20408;-71
2021/10/04 00:50:56;;;;;;;1.75;0.95;;;12.10;98.00;;;;;;5075609;28;20051;-71
2021/10/04 00:53:21;;;;;;;1.67;1.00;;;12.10;98.00;;;;;;5071541;28;20078;-71
2021/10/04 00:55:47;;;;;;;2.03;0.82;;;12.10;98.00;;;;;;5073428;28;20480;-71
2021/10/04 00:58:13;;;;;;;1.13;0.80;;;12.20;98.00;;;;;;5073672;28;20119;-71
2021/10/04 01:00:42;;;;;;;1.40;0.82;;;12.10;98.00;;;;;;5074693;28;20039;-70
2021/10/04 01:03:07;;;;;;;1.83;0.85;;;12.10;98.00;;;;;;5066882;28;20037;-70
2021/10/04 01:05:34;;;;;;;2.10;0.88;;;12.20;98.00;;;;;;5055554;28;20027;-70
2021/10/04 01:08:00;;;;;;;1.95;0.90;;;12.10;98.00;;;;;;5067112;28;20036;-69
2021/10/04 01:10:26;;;;;;;2.30;0.90;;;12.10;98.00;;;;;;5073631;28;20035;-70
2021/10/04 01:12:52;;;;;;;2.65;0.90;;;12.10;98.00;;;;;;5075177;28;20044;-70
2021/10/04 01:15:20;;;;;;;3.42;0.98;;;12.10;98.00;;;;;;5072532;28;20354;-70
2021/10/04 01:17:47;;;;;;;2.05;0.88;;;12.10;98.00;;;;;;5073473;28;20336;-70
2021/10/04 01:20:16;;;;;;;1.90;0.90;;;12.20;98.00;;;;;;5071894;28;20095;-70
2021/10/04 01:22:42;;;;;;;2.70;1.02;;;12.20;98.00;;;;;;5071077;28;20036;-69
2021/10/04 01:25:09;;;;;;;1.83;0.90;;;12.20;98.00;;;;;;5060108;28;20098;-70
2021/10/04 01:27:35;;;;;;;1.88;0.90;;;12.20;98.00;;;;;;5066786;28;20039;-70
2021/10/04 01:30:03;;;;;;;1.60;0.80;;;12.20;98.00;;;;;;5068877;28;20029;-70
2021/10/04 01:32:28;;;;;;;2.65;1.00;;;12.20;98.00;;;;;;5072556;28;20025;-70
2021/10/04 01:34:55;;;;;;;2.55;1.05;;;12.20;98.00;;;;;;5059857;28;20025;-70
2021/10/04 01:37:23;;;;;;;2.28;1.15;;;12.10;98.00;;;;;;5062252;28;20028;-69
2021/10/04 01:39:49;;;;;;;2.05;0.90;;;12.10;98.00;;;;;;5056429;28;20029;-70
2021/10/04 01:42:15;;;;;;;2.63;1.05;;;12.10;98.00;;;;;;5069306;28;20032;-70
2021/10/04 01:44:41;;;;;;;1.70;0.80;;;12.10;98.00;;;;;;5057120;28;20032;-70
2021/10/04 01:47:07;;;;;;;2.40;0.90;;;12.00;98.00;;;;;;5064890;28;20439;-70
2021/10/04 01:49:32;;;;;;;2.03;0.95;;;12.00;98.00;;;;;;5070098;28;20089;-70
2021/10/04 01:51:58;;;;;;;4.03;1.05;;;12.10;98.00;;;;;;5073947;28;20108;-70
2021/10/04 01:54:24;;;;;;;1.70;1.00;;;12.00;98.00;;;;;;5070492;28;20023;-69
2021/10/04 01:56:49;;;;;;;1.80;1.00;;;12.00;98.00;;;;;;5067889;28;20021;-70
2021/10/04 01:59:15;;;;;;;2.58;1.02;;;11.90;98.00;;;;;;5074262;28;20031;-69
2021/10/04 02:01:43;;;;;;;2.13;1.10;;;11.90;98.00;;;;;;5072848;28;20417;-71
2021/10/04 02:04:09;;;;;;;2.22;1.13;;;11.90;98.00;;;;;;5056939;28;20017;-70
2021/10/04 02:06:35;;;;;;;2.20;0.90;;;11.90;98.00;;;;;;5056424;28;20385;-71
2021/10/04 02:09:00;;;;;;;2.97;1.30;;;11.80;98.00;;;;;;5074321;28;20621;-71
2021/10/04 02:11:27;;;;;;;2.38;1.13;;;11.70;98.00;;;;;;5057988;28;20021;-71
2021/10/04 02:13:52;;;;;;;3.30;1.30;;;11.60;98.00;;;;;;5070059;28;20107;-71
2021/10/04 02:16:18;;;;;;;3.28;1.25;;;11.60;98.00;;;;;;5073378;28;20108;-71
2021/10/04 02:18:44;;;;;;;2.95;1.30;;;11.50;97.90;;;;;;5073883;28;20044;-71
2021/10/04 02:21:12;;;;;;;2.53;1.15;;;11.40;97.70;;;;;;5065955;28;20323;-70
2021/10/04 02:23:38;;;;;;;3.53;1.30;;;11.30;97.40;;;;;;5072768;28;20032;-70
2021/10/04 02:26:04;;;;;;;3.15;1.40;;;11.20;97.30;;;;;;5055221;28;20036;-70
2021/10/04 02:28:29;;;;;;;2.60;1.10;;;11.10;96.90;;;;;;5063411;28;20040;-70
2021/10/04 02:30:56;;;;;;;2.15;1.13;;;11.10;96.80;;;;;;5072590;28;20035;-70
2021/10/04 02:33:22;;;;;;;2.17;1.05;;;11.10;96.70;;;;;;5069462;28;20057;-70
2021/10/04 02:35:48;;;;;;;2.95;1.33;;;11.00;96.30;;;;;;5058707;28;20444;-70
2021/10/04 02:38:14;;;;;;;3.15;1.33;;;11.00;96.20;;;;;;5062015;28;20052;-70
2021/10/04 02:40:40;;;;;;;2.67;1.30;;;11.00;96.10;;;;;;5064138;28;20052;-70
2021/10/04 02:43:07;;;;;;;2.40;1.27;;;11.00;96.00;;;;;;5055273;28;20041;-70
2021/10/04 02:45:33;;;;;;;4.20;1.30;;;11.00;95.70;;;;;;5068423;28;20028;-70
2021/10/04 02:48:01;;;;;;;2.53;1.35;;;10.90;95.60;;;;;;5074840;28;20025;-70
2021/10/04 02:50:28;;;;;;;3.05;1.30;;;10.90;95.50;;;;;;5070509;28;20044;-70
2021/10/04 02:52:53;;;;;;;2.80;1.48;;;10.80;95.20;;;;;;5070719;28;20025;-70
2021/10/04 02:55:19;;;;;;;3.28;1.40;;;10.80;95.10;;;;;;5076996;28;20290;-71
2021/10/04 02:57:45;;;;;;;2.75;1.40;;;10.80;94.80;;;;;;5077140;28;20028;-70
2021/10/04 03:00:14;;;;;;;4.43;1.50;;;10.80;94.70;;;;;;5070831;28;20021;-71
2021/10/04 03:02:40;;;;;;;3.10;1.55;;;10.80;94.60;;;;;;5077446;28;20035;-71
2021/10/04 03:05:06;;;;;;;3.83;1.50;;;10.70;94.10;;;;;;5077584;28;20032;-70
2021/10/04 03:07:32;;;;;;;3.13;1.60;;;10.70;94.20;;;;;;5061685;28;20028;-71
2021/10/04 03:09:57;;;;;;;3.25;1.60;;;10.70;94.00;;;;;;5060209;28;20039;-70
2021/10/04 03:12:23;;;;;;;2.85;1.38;;;10.60;93.70;;;;;;5073988;28;20056;-71
2021/10/04 03:14:49;;;;;;;3.20;1.55;;;10.70;93.30;;;;;;5067827;28;20402;-70
2021/10/04 03:17:20;;;;;;;3.90;1.70;;;10.70;93.40;;;;;;5075566;28;20020;-71
2021/10/04 03:19:46;;;;;;;4.15;1.50;;;10.70;93.40;;;;;;5074794;28;20032;-69
2021/10/04 03:22:11;;;;;;;3.88;1.50;;;10.70;93.10;;;;;;5066198;28;20428;-70
2021/10/04 03:24:37;;;;;;;3.20;1.60;;;10.60;93.30;;;;;;5069756;28;20047;-70
2021/10/04 03:27:06;;;;;;;6.05;2.20;;;10.60;93.00;;;;;;5072376;28;20082;-70
2021/10/04 03:29:32;;;;;;;3.58;2.00;;;10.60;93.00;;;;;;5067494;28;20453;-70
2021/10/04 03:31:57;;;;;;;5.15;2.15;;;10.60;92.10;;;;;;5071135;28;20027;-71
2021/10/04 03:34:23;;;;;;;5.15;2.20;;;10.60;92.20;;;;;;5069204;28;20031;-71
2021/10/04 03:36:50;;;;;;;4.43;2.45;;;10.60;92.00;;;;;;5073642;28;20040;-71
2021/10/04 03:39:16;;;;;;;4.28;1.85;;;10.60;92.00;;;;;;5064284;28;20033;-71
2021/10/04 03:41:42;;;;;;;3.53;1.83;;;10.60;92.00;;;;;;5063866;28;20033;-71
2021/10/04 03:44:08;;;;;;;3.78;1.80;;;10.50;92.00;;;;;;5061189;28;20035;-71
2021/10/04 03:46:34;;;;;;;3.58;1.95;;;10.50;92.10;;;;;;5076849;28;20029;-71
2021/10/04 03:49:00;;;;;;;4.05;1.83;;;10.50;92.00;;;;;;5076415;28;20060;-71
2021/10/04 03:51:27;;;;;;;4.63;1.55;;;10.50;92.10;;;;;;5068851;28;20106;-71
2021/10/04 03:53:53;;;;;;;3.78;1.92;;;10.50;91.70;;;;;;5075898;28;20025;-71
2021/10/04 03:56:19;;;;;;;3.08;1.60;;;10.40;92.00;;;;;;5075591;28;20033;-71
2021/10/04 03:58:45;;;;;;;4.30;1.45;;;10.50;91.60;;;;;;5073017;28;20037;-71
2021/10/04 04:01:11;;;;;;;3.55;1.50;;;10.50;91.50;;;;;;5065783;28;20107;-71
2021/10/04 04:03:37;;;;;;;3.28;1.77;;;10.40;91.50;;;;;;5064680;28;20092;-71
2021/10/04 04:06:04;;;;;;;3.80;2.08;;;10.40;91.50;;;;;;5075005;28;20028;-71
2021/10/04 04:08:30;;;;;;;4.93;1.85;;;10.40;91.50;;;;;;5068451;28;20333;-70
2021/10/04 04:10:58;;;;;;;4.38;2.17;;;10.40;91.30;;;;;;5058750;28;20016;-71
2021/10/04 04:13:23;;;;;;;5.97;2.20;;;10.40;91.20;;;;;;5066969;28;20025;-71
2021/10/04 04:15:49;;;;;;;4.50;2.25;;;10.40;91.40;;;;;;5058857;28;20093;-71
2021/10/04 04:18:15;;;;;;;6.50;2.33;;;10.40;91.40;;;;;;5075580;28;20792;-70
2021/10/04 04:20:40;;;;;;;5.40;2.60;;;10.30;91.20;;;;;;5063726;28;20021;-71
2021/10/04 04:23:09;;;;;;;3.60;2.00;;;10.30;90.90;;;;;;5072050;28;20081;-71
2021/10/04 04:25:35;;;;;;;4.07;2.05;;;10.30;91.10;;;;;;5061981;28;20358;-71
2021/10/04 04:28:00;;;;;;;6.13;2.25;;;10.30;91.10;;;;;;5059260;28;20064;-71
2021/10/04 04:30:27;;;;;;;6.00;2.75;;;10.30;90.90;;;;;;5066883;28;20032;-71
2021/10/04 04:32:53;;;;;;;6.57;2.50;;;10.30;90.80;;;;;;5065850;28;20036;-71
2021/10/04 04:35:19;;;;;;;5.05;2.70;;;10.30;91.00;;;;;;5061396;28;20033;-71
2021/10/04 04:37:45;;;;;;;4.82;2.50;;;10.30;90.90;;;;;;5066435;28;20021;-71
2021/10/04 04:40:14;;;;;;;4.78;2.13;;;10.30;91.00;;;;;;5059298;28;20436;-71
2021/10/04 04:42:44;;;;;;;5.30;2.75;;;10.30;90.50;;;;;;5058900;28;20032;-71
2021/10/04 04:45:13;;;;;;;2.47;1.30;;;10.40;90.70;;;;;;5068409;28;20739;-71
2021/10/04 04:47:39;;;;;;;4.95;2.00;;;10.30;91.20;;;;;;5066371;28;20036;-71
2021/10/04 04:50:05;;;;;;;4.07;1.60;;;10.30;90.90;;;;;;5057194;28;20032;-71
2021/10/04 04:52:31;;;;;;;3.53;1.70;;;10.30;91.00;;;;;;5071314;28;20036;-71
2021/10/04 04:54:57;;;;;;;4.43;1.60;;;10.30;91.10;;;;;;5066094;28;20025;-72
2021/10/04 04:57:23;;;;;;;3.38;1.55;;;10.20;91.10;;;;;;5067725;28;20101;-72
2021/10/04 04:59:49;;;;;;;3.20;1.70;;;10.30;90.80;;;;;;5068442;28;20053;-72
2021/10/04 05:02:15;;;;;;;4.57;1.40;;;10.30;91.10;;;;;;5063564;28;20308;-71
2021/10/04 05:04:40;;;;;;;2.03;1.20;;;10.20;91.30;;;;;;5062896;28;20094;-71
2021/10/04 05:07:06;;;;;;;2.63;1.45;;;10.20;91.30;;;;;;5066196;28;20409;-71
2021/10/04 05:09:32;;;;;;;3.13;1.48;;;10.20;91.40;;;;;;5073013;28;20016;-72
2021/10/04 05:12:01;;;;;;;3.42;1.52;;;10.10;91.60;;;;;;5070620;28;20074;-72
2021/10/04 05:14:26;;;;;;;2.80;1.40;;;10.10;91.70;;;;;;5063167;28;20024;-72
2021/10/04 05:16:52;;;;;;;2.63;1.38;;;10.10;91.40;;;;;;5067171;28;20078;-72
2021/10/04 05:19:18;;;;;;;3.40;1.70;;;10.10;91.30;;;;;;5066736;28;20084;-71
2021/10/04 05:21:43;;;;;;;4.68;1.70;;;10.10;91.10;;;;;;5073870;28;20071;-72
2021/10/04 05:24:09;;;;;;;2.85;1.52;;;10.10;91.50;;;;;;5074185;28;20440;-72
2021/10/04 05:26:38;;;;;;;3.30;1.65;;;10.10;91.60;;;;;;5068435;28;20036;-72
2021/10/04 05:29:04;;;;;;;2.47;1.27;;;10.10;91.40;;;;;;5059848;28;20040;-72
2021/10/04 05:31:29;;;;;;;4.95;2.05;;;10.10;91.50;;;;;;5064643;28;20025;-73
2021/10/04 05:33:55;;;;;;;4.07;1.80;;;10.10;91.40;;;;;;5060380;28;20100;-72
2021/10/04 05:36:21;;;;;;;3.22;1.70;;;10.10;91.30;;;;;;5067598;28;20054;-72
2021/10/04 05:38:47;;;;;;;3.30;1.70;;;10.10;91.30;;;;;;5074167;28;20035;-73
2021/10/04 05:41:13;;;;;;;4.32;1.92;;;10.10;91.30;;;;;;5070377;28;20039;-73
2021/10/04 05:43:39;;;;;;;3.63;1.70;;;10.10;91.60;;;;;;5066276;28;20032;-72
2021/10/04 05:46:05;;;;;;;3.78;1.70;;;10.10;91.40;;;;;;5065817;28;20405;-76
2021/10/04 05:48:31;;;;;;;3.90;2.03;;;10.10;91.50;;;;;;5065656;28;20422;-72
2021/10/04 05:50:57;;;;;;;4.13;2.10;;;10.10;91.30;;;;;;5073534;28;21323;-72
2021/10/04 05:53:23;;;;;;;2.92;1.75;;;10.10;91.10;;;;;;5060386;28;20032;-72
2021/10/04 05:55:49;;;;;;;4.32;1.88;;;10.10;91.10;;;;;;5071607;28;20547;-73
2021/10/04 05:58:15;;;;;;;4.13;2.00;;;10.10;90.70;;;;;;5075611;28;20027;-73
2021/10/04 06:00:42;;;;;;;4.32;2.20;;;10.10;90.90;;;;;;5061483;28;20020;-74
2021/10/04 06:03:08;;;;;;;4.15;2.35;;;10.10;90.70;;;;;;5066176;28;20048;-73
2021/10/04 06:05:33;;;;;;;4.70;2.40;;;10.10;91.00;;;;;;5075438;28;20067;-73
2021/10/04 06:07:59;;;;;;;6.20;2.58;;;10.10;90.50;;;;;;5075642;28;20173;-73
2021/10/04 06:10:25;;;;;;;4.47;2.38;;;10.10;90.80;;;;;;5074176;28;20032;-73
2021/10/04 06:12:51;;;;;;;6.00;2.70;;;10.20;90.60;;;;;;5075519;28;20029;-74
2021/10/04 06:15:17;;;;;;;6.25;3.30;;;10.20;90.30;;;;;;5075626;28;20031;-73
2021/10/04 06:17:43;;;;;;;6.57;3.33;;;10.20;90.90;;;;;;5073797;28;20048;-74
2021/10/04 06:20:10;;;;;;;7.97;4.20;;;10.20;90.80;;;;;;5075735;28;20024;-73
2021/10/04 06:22:37;;;;;;;5.30;3.10;;;10.20;90.70;;;;;;5074913;28;20028;-73
2021/10/04 06:25:05;;;;;;;6.65;4.35;;;10.20;90.60;;;;;;5074356;28;20026;-73
2021/10/04 06:27:30;;;;;;;9.02;5.50;;;10.20;90.80;;;;;;5075184;28;20032;-73
2021/10/04 06:29:59;;;;;;;6.50;4.00;;;10.20;90.30;;;;;;5075361;28;20035;-73
2021/10/04 06:32:24;;;;;;;5.72;3.13;;;10.20;90.30;;;;;;5074072;28;20052;-73
2021/10/04 06:34:50;;;;;;;4.57;2.70;;;10.30;90.20;;;;;;5074743;28;20048;-73
2021/10/04 06:37:16;;;;;;;7.15;2.95;;;10.30;90.10;;;;;;5075039;28;20033;-73
2021/10/04 06:39:41;;;;;;;8.38;2.63;;;10.30;90.60;;;;;;5075362;28;20033;-73
2021/10/04 06:42:10;;;;;;;4.68;2.45;;;10.30;90.30;;;;;;5074156;28;20024;-73
2021/10/04 06:44:39;;;;;;;5.97;3.38;;;10.40;90.70;;;;;;5075387;28;20029;-73
2021/10/04 06:47:05;;;;;;;5.63;2.15;;;10.40;90.90;;;;;;5069706;28;20021;-73
2021/10/04 06:49:33;;;;;;;4.10;2.10;;;10.40;90.90;;;;;;5075333;28;20058;-73
2021/10/04 06:52:00;;;;;;;6.28;2.40;;;10.40;91.30;;;;;;5075370;28;20024;-73
2021/10/04 06:54:29;;;;;;;5.47;2.67;;;10.40;91.70;;;;;;5075402;28;20019;-73
2021/10/04 06:56:54;;;;;;;9.60;3.88;;;10.30;91.50;;;;;;5073635;28;20021;-72
2021/10/04 06:59:20;;;;;;;5.78;2.80;;;10.30;91.70;;;;;;5074303;28;20482;-72
2021/10/04 07:01:46;;;;;;;6.93;3.28;;;10.40;91.90;;;;;;5071207;28;20139;-72
2021/10/04 07:04:11;;;;;;;5.80;3.20;;;10.30;92.20;;;;;;5074912;28;20032;-72
2021/10/04 07:06:37;;;;;;;5.35;2.40;;;10.30;92.50;;;;;;5075294;28;20320;-72
2021/10/04 07:09:03;;;;;;;5.97;2.58;;;10.30;92.30;;;;;;5072744;28;20039;-72
2021/10/04 07:11:29;;;;;;;5.55;2.53;;;10.30;92.50;;;;;;5067310;28;20025;-73
2021/10/04 07:13:57;;;;;;;4.25;2.10;;;10.30;92.10;;;;;;5066194;28;20029;-73
2021/10/04 07:16:23;;;;;;;4.50;2.22;;;10.30;92.50;;;;;;5075247;28;20099;-72
2021/10/04 07:18:49;;;;;;;3.72;1.70;;;10.40;92.50;;;;;;5074724;28;20106;-72
2021/10/04 07:21:15;;;;;;;3.60;1.77;;;10.30;92.90;;;;;;5074829;28;20025;-73
2021/10/04 07:23:43;;;;;;;3.40;1.25;;;10.30;93.20;;;;;;5075095;28;20290;-72
2021/10/04 07:26:10;;;;;;;3.17;1.45;;;10.30;93.40;;;;;;5073738;28;20021;-72
2021/10/04 07:28:35;;;;;;;3.25;1.55;;;10.40;93.30;;;;;;5075053;28;20401;-72
2021/10/04 07:31:01;;;;;;;4.50;1.60;;;10.40;93.40;;;;;;5074477;28;20081;-72
2021/10/04 07:33:27;;;;;;;2.85;1.30;;;10.50;94.00;;;;;;5074722;28;20031;-72
2021/10/04 07:35:52;;;;;;;2.67;1.20;;;10.40;94.70;;;;;;5078420;28;20035;-72
2021/10/04 07:38:19;;;;;;;3.65;1.40;;;10.40;94.70;;;;;;5067260;28;20037;-72
2021/10/04 07:40:45;;;;;;;3.65;1.30;;;10.40;95.20;;;;;;5061582;28;20297;-72
2021/10/04 07:43:14;;;;;;;3.15;1.60;;;10.40;95.60;;;;;;5077635;28;20039;-72
2021/10/04 07:45:40;;;;;;;3.13;1.55;;;10.30;95.60;;;;;;5068625;28;20107;-72
2021/10/04 07:48:06;;;;;;;2.92;1.45;;;10.30;96.10;;;;;;5068708;28;20028;-73
2021/10/04 07:50:32;;;;;;;4.63;1.80;;;10.30;95.80;;;;;;5077312;28;20054;-73
2021/10/04 07:52:58;;;;;;;5.45;2.13;;;10.30;95.40;;;;;;5077411;28;20052;-73
2021/10/04 07:55:24;;;;;;;4.68;2.38;;;10.30;95.00;;;;;;5076631;28;20036;-73
2021/10/04 07:57:49;;;;;;;5.55;2.55;;;10.40;94.80;;;;;;5077939;28;20055;-73
2021/10/04 08:00:17;;;;;;;4.95;2.47;;;10.40;94.50;;;;;;5063606;28;20036;-73
2021/10/04 08:02:43;;;;;;;4.53;2.40;;;10.40;94.80;;;;;;5058003;28;20025;-73
2021/10/04 08:05:10;;;;;;;5.90;2.00;;;10.40;95.00;;;;;;5058017;28;20313;-73
2021/10/04 08:07:37;;;;;;;4.35;2.22;;;10.30;95.30;;;;;;5058085;28;20041;-74
2021/10/04 08:10:05;;;;;;;3.83;1.90;;;10.30;94.80;;;;;;5069718;28;20036;-74
2021/10/04 08:12:31;;;;;;;3.80;1.75;;;10.30;95.50;;;;;;5071150;28;20356;-74
2021/10/04 08:14:57;;;;;;;5.47;1.80;;;10.30;95.40;;;;;;5073269;28;20033;-73
2021/10/04 08:17:24;;;;;;;3.58;1.98;;;10.20;95.80;;;;;;5071142;28;20028;-73
2021/10/04 08:19:51;;;;;;;4.65;2.28;;;10.20;95.40;;;;;;5061709;28;20021;-73
2021/10/04 08:22:17;;;;;;;5.72;2.03;;;10.30;95.10;;;;;;5071989;28;20024;-73
2021/10/04 08:24:43;;;;;;;4.60;2.03;;;10.30;95.10;;;;;;5058971;28;20048;-73
2021/10/04 08:27:09;;;;;;;4.38;2.10;;;10.30;95.10;;;;;;5061982;28;20085;-72
2021/10/04 08:29:34;;;;;;;3.65;2.08;;;10.30;95.20;;;;;;5065225;28;20025;-72
2021/10/04 08:32:01;;;;;;;3.17;1.80;;;10.30;95.10;;;;;;5066966;28;20082;-73
2021/10/04 08:34:26;;;;;;;5.57;2.30;;;10.30;95.70;;;;;;5061006;28;20021;-73
2021/10/04 08:36:52;;;;;;;3.97;2.08;;;10.30;95.60;;;;;;5071590;28;20421;-73
2021/10/04 08:39:18;;;;;;;4.70;2.15;;;10.30;94.90;;;;;;5074794;28;20028;-73
2021/10/04 08:41:44;;;;;;;4.50;2.30;;;10.30;95.30;;;;;;5054785;28;20091;-73
2021/10/04 08:44:12;;;;;;;5.60;3.20;;;10.30;95.40;;;;;;5069733;28;20048;-73
2021/10/04 08:46:41;;;;;;;9.73;3.85;;;10.40;95.30;;;;;;5072017;28;20032;-73
2021/10/04 08:49:08;;;;;;;7.10;3.78;;;10.40;94.70;;;;;;5064765;28;20039;-73
2021/10/04 08:51:34;;;;;;;5.75;2.70;;;10.40;95.20;;;;;;5060069;28;20028;-72
2021/10/04 08:54:02;;;;;;;7.20;3.75;;;10.40;95.10;;;;;;5069905;28;20040;-73
2021/10/04 08:56:27;;;;;;;9.38;5.28;;;10.50;95.70;;;;;;5073616;28;20123;-72
2021/10/04 08:58:53;;;;;;;7.20;4.18;;;10.50;95.70;;;;;;5071129;28;20108;-73
2021/10/04 09:01:22;;;;;;;5.50;2.97;;;10.60;95.10;;;;;;5056384;28;20056;-73
2021/10/04 09:03:51;;;;;;;4.03;2.03;;;10.70;95.70;;;;;;5073108;28;20428;-72
2021/10/04 09:06:25;;;;;;;5.00;2.97;;;10.80;95.70;;;;;;5081374;28;20029;-72
2021/10/04 09:08:57;;;;;;;5.15;2.60;;;10.80;96.80;;;;;;5066574;28;20320;-72
2021/10/04 09:11:34;;;;;;;4.47;2.40;;;10.70;96.80;;;;;;5069870;28;20029;-72
2021/10/04 09:14:06;;;;;;;4.43;2.30;;;10.60;96.50;;;;;;5066032;28;20028;-72
2021/10/04 09:16:50;;;;;;;3.65;1.40;;;10.70;95.80;;;;;;5061311;28;20013;-73
2021/10/04 09:19:35;;;;;;;3.53;1.70;;;10.80;96.60;;;;;;5067475;28;20487;-72
2021/10/04 09:22:19;;;;;;;3.92;1.42;;;10.70;97.30;;;;;;5060435;28;20037;-72
2021/10/04 09:24:57;;;;;;;6.50;1.92;;;10.70;97.60;;;;;;5066381;28;20328;-73
2021/10/04 09:27:24;;;;;;;3.90;1.85;;;10.70;97.50;;;;;;5070883;28;20029;-72
2021/10/04 09:29:50;;;;;;;5.60;2.42;;;10.80;97.20;;;;;;5063433;28;20031;-72
2021/10/04 09:32:33;;;;;;;9.75;4.25;;;10.80;97.60;;;;;;5072372;28;20103;-73
2021/10/04 09:35:25;;;;;;;5.05;2.50;;;10.80;97.50;;;;;;5072269;28;20028;-73
2021/10/04 09:37:51;;;;;;;2.88;1.50;;;10.80;98.00;;;;;;5066549;28;20036;-73
2021/10/04 09:40:34;;;;;;;3.92;1.75;;;10.80;97.60;;;;;;5055778;28;20479;-73
2021/10/04 09:43:06;;;;;;;4.53;2.00;;;10.90;97.20;;;;;;5056118;28;20032;-74
2021/10/04 09:45:33;;;;;;;4.40;2.25;;;10.80;97.90;;;;;;5067006;28;20269;-73
2021/10/04 09:48:13;;;;;;;3.90;1.85;;;10.80;97.50;;;;;;5071925;28;20024;-73
2021/10/04 09:50:41;;;;;;;5.28;2.63;;;10.70;97.60;;;;;;5066318;28;20024;-73
2021/10/04 09:53:12;;;;;;;4.25;2.20;;;10.70;97.00;;;;;;5059863;28;20013;-73
2021/10/04 09:55:37;;;;;;;6.10;3.20;;;10.80;96.90;;;;;;5065779;28;20028;-72
2021/10/04 09:58:08;;;;;;;6.78;2.00;;;10.80;96.90;;;;;;5069915;28;20099;-73
2021/10/04 10:00:40;;;;;;;4.40;2.28;;;10.80;97.10;;;;;;5069781;28;20028;-72
2021/10/04 10:03:08;;;;;;;7.88;3.25;;;10.70;97.40;;;;;;5064264;28;20023;-73
2021/10/04 10:05:37;;;;;;;4.53;2.30;;;10.70;97.30;;;;;;5066285;28;20024;-72
2021/10/04 10:08:04;;;;;;;5.97;2.83;;;10.90;97.30;;;;;;5061465;28;20033;-73
2021/10/04 10:10:30;;;;;;;3.40;1.90;;;10.90;97.00;;;;;;5074447;28;20413;-74
2021/10/04 10:12:56;;;;;;;1.92;1.20;;;11.10;97.70;;;;;;5074116;28;20082;-73
2021/10/04 10:15:25;;;;;;;5.40;2.10;;;11.20;97.50;;;;;;5069710;28;20421;-73
2021/10/04 10:17:59;;;;;;;5.40;2.70;;;11.20;98.00;;;;;;5063596;28;20045;-74
2021/10/04 10:20:26;;;;;;;4.32;2.10;;;11.30;98.00;;;;;;5067853;28;20033;-73
2021/10/04 10:22:53;;;;;;;3.15;1.58;;;11.30;98.00;;;;;;5074778;28;20044;-72
2021/10/04 10:25:30;;;;;;;3.30;1.50;;;11.50;98.00;;;;;;5061781;28;20083;-73
2021/10/04 10:27:56;;;;;;;1.55;1.00;;;11.60;98.00;;;;;;5056182;28;20112;-72
2021/10/04 10:30:23;;;;;;;1.83;1.00;;;11.70;98.00;;;;;;5055262;28;20364;-73
2021/10/04 10:32:51;;;;;;;4.05;1.10;;;11.80;98.00;;;;;;5067617;28;20116;-73
2021/10/04 10:35:16;;;;;;;4.13;1.20;;;11.80;98.00;;;;;;5065726;28;20021;-72
2021/10/04 10:37:51;;;;;;;2.00;1.00;;;11.80;98.00;;;;;;5057013;28;20037;-73
2021/10/04 10:40:24;;;;;;;2.40;1.00;;;11.90;98.00;;;;;;5072972;28;20141;-72
2021/10/04 10:43:09;;;;;;;2.42;1.10;;;12.10;98.00;;;;;;5074627;28;20032;-73
2021/10/04 10:45:42;;;;;;;2.03;0.80;;;12.30;98.00;;;;;;5072525;28;20036;-72
2021/10/04 10:48:08;;;;;;;1.58;0.90;;;12.40;98.00;;;;;;5073853;28;20112;-72
2021/10/04 10:50:37;;;;;;;2.53;0.98;;;12.40;98.00;;;;;;5057436;28;20028;-72
2021/10/04 10:53:16;;;;;;;1.23;0.80;;;12.20;98.00;;;;;;5069284;28;20037;-72
2021/10/04 10:55:52;;;;;;;1.27;0.80;;;12.30;98.00;;;;;;5068915;28;20036;-72
2021/10/04 10:58:23;;;;;;;1.00;0.70;;;12.40;98.00;;;;;;5060406;28;20036;-72
2021/10/04 11:01:16;;;;;;;1.48;0.82;;;12.30;98.00;;;;;;5057225;28;20028;-72
2021/10/04 11:03:53;;;;;;;3.38;1.00;;;12.50;98.00;;;;;;5067906;28;20059;-72
2021/10/04 11:06:37;;;;;;;5.40;2.67;;;12.60;98.00;;;;;;5072403;28;20056;-71
2021/10/04 11:09:03;;;;;;;5.55;3.25;;;12.60;98.00;;;;;;5067845;28;20025;-72
2021/10/04 11:11:30;;;;;;;8.73;4.13;;;12.80;98.00;;;;;;5067237;28;20043;-72
2021/10/04 11:13:59;;;;;;;4.78;2.63;;;13.00;98.00;;;;;;5066058;28;20029;-72
2021/10/04 11:16:24;;;;;;;4.78;2.70;;;13.00;98.00;;;;;;5060081;28;20059;-71
2021/10/04 11:18:52;;;;;;;2.83;1.60;;;13.00;98.00;;;;;;5059494;28;20072;-72
2021/10/04 11:21:27;;;;;;;3.28;1.50;;;13.20;98.00;;;;;;5058863;28;20021;-71
2021/10/04 11:23:59;;;;;;;3.75;1.83;;;13.40;98.00;;;;;;5070623;28;20132;-72
2021/10/04 11:26:26;;;;;;;3.97;1.35;;;13.50;98.00;;;;;;5057493;28;20021;-71
2021/10/04 11:28:59;;;;;;;1.63;0.90;;;13.60;98.00;;;;;;5065155;28;20031;-73
2021/10/04 11:31:28;;;;;;;1.60;0.88;;;13.60;98.00;;;;;;5074935;28;20312;-71
2021/10/04 11:34:05;;;;;;;1.77;0.98;;;13.80;98.00;;;;;;5077102;28;20449;-73
2021/10/04 11:36:53;;;;;;;1.90;1.10;;;13.80;98.00;;;;;;5078273;28;20028;-71
2021/10/04 11:39:28;;;;;;;6.28;1.35;;;13.90;98.00;;;;;;5064162;28;20033;-72
2021/10/04 11:41:56;;;;;;;2.50;1.15;;;13.90;98.00;;;;;;5058078;28;20108;-71
2021/10/04 11:44:27;;;;;;;4.07;1.60;;;13.50;98.00;;;;;;5058464;28;20040;-70
2021/10/04 11:46:54;;;;;;;2.63;1.20;;;13.30;98.00;;;;;;5071296;28;20114;-72
2021/10/04 11:49:25;;;;;;;2.63;0.90;;;13.30;98.00;;;;;;5071743;28;20017;-71
2021/10/04 11:51:55;;;;;;;3.53;1.00;;;13.20;98.00;;;;;;5073445;28;20062;-71
2021/10/04 11:54:42;;;;;;;4.75;0.90;;;13.20;98.00;;;;;;5063625;28;20031;-72
2021/10/04 11:57:11;;;;;;;1.73;0.90;;;13.10;98.00;;;;;;5076296;28;20079;-71
2021/10/04 11:59:47;;;;;;;2.45;1.00;;;13.10;98.00;;;;;;5042507;28;20334;-71
2021/10/04 12:02:24;;;;;;;1.67;0.90;;;13.20;98.00;;;;;;5060677;28;20063;-71
2021/10/04 12:04:50;;;;;;;2.25;0.90;;;13.20;98.00;;;;;;5057913;28;20111;-71
2021/10/04 12:07:22;;;;;;;1.25;0.68;;;13.40;98.00;;;;;;5063093;28;20074;-69
2021/10/04 12:09:57;;;;;;;1.60;0.90;;;13.50;98.00;;;;;;5060143;28;20035;-70
2021/10/04 12:12:35;;;;;;;6.15;2.13;;;13.70;98.00;;;;;;5063023;28;20030;-70
2021/10/04 12:15:02;;;;;;;5.00;2.65;;;14.00;98.00;;;;;;5073890;28;20108;-71
2021/10/04 12:17:28;;;;;;;3.50;1.60;;;14.20;98.00;;;;;;5071391;28;20375;-70
2021/10/04 12:19:54;;;;;;;7.53;2.63;;;14.40;98.00;;;;;;5061963;28;20086;-71
2021/10/04 12:22:34;;;;;;;8.13;3.28;;;14.10;98.00;;;;;;5068853;28;20036;-71
2021/10/04 12:25:01;;;;;;;5.20;2.00;;;13.80;98.00;;;;;;5067293;28;20033;-70
2021/10/04 12:27:27;;;;;;;2.67;1.25;;;13.70;98.00;;;;;;5070057;28;20029;-72
2021/10/04 12:30:00;;;;;;;6.38;2.08;;;13.70;98.00;;;;;;5075425;28;20028;-71
2021/10/04 12:32:37;;;;;;;1.98;1.00;;;13.60;98.00;;;;;;5065032;28;20021;-71
2021/10/04 12:35:09;;;;;;;3.38;1.20;;;13.60;98.00;;;;;;5057677;28;20024;-71
2021/10/04 12:37:42;;;;;;;2.63;1.35;;;13.70;98.00;;;;;;5066871;28;20108;-71
2021/10/04 12:40:32;;;;;;;4.78;2.33;;;13.70;98.00;;;;;;5072679;28;20024;-71
2021/10/04 12:43:14;;;;;;;6.47;1.98;;;13.40;98.00;;;;;;5063955;28;20056;-72
2021/10/04 12:45:55;;;;;;;8.90;1.40;;;13.30;98.00;;;;;;5062107;28;20111;-71
2021/10/04 12:48:21;;;;;;;4.03;2.20;;;13.00;98.00;;;;;;5073559;28;20425;-71
2021/10/04 12:50:48;;;;;;;3.20;1.77;;;12.80;98.00;;;;;;5057283;28;20033;-72
2021/10/04 12:53:14;;;;;;;4.20;2.00;;;12.70;98.00;;;;;;5076714;28;20028;-72